Time;durP1;ratioP1;P1;durP2;ratioP2;P2;SDS_P1;SDS_P2;PMS_P1;PMS_P2;Temp;Humidity;BMP_temperature;BMP_pressure;BME280_temperature;BME280_humidity;BME280_pressure;Samples;Min_cycle;Max_cycle;Signal;HPM_P1;HPM_P2
2024/03/06 00:02:13;;;;;;;7.70;4.60;;;;;;;9.47;73.84;100441.06;10303586;28;20122;-58
2024/03/06 00:07:15;;;;;;;10.43;5.63;;;;;;;9.30;73.93;100441.06;10306510;28;20647;-58
2024/03/06 00:12:16;;;;;;;13.38;6.32;;;;;;;9.22;73.66;100451.78;10303587;28;20060;-59
2024/03/06 00:17:18;;;;;;;10.85;6.03;;;;;;;9.07;73.89;100459.63;10304092;28;20049;-58
2024/03/06 00:22:19;;;;;;;10.05;5.60;;;;;;;8.95;74.31;100471.66;10290895;28;20042;-59
2024/03/06 00:27:24;;;;;;;12.82;6.43;;;;;;;8.99;74.30;100478.38;10304884;28;20092;-58
2024/03/06 00:32:25;;;;;;;12.65;6.50;;;;;;;8.85;74.84;100482.50;10301120;28;20038;-59
2024/03/06 00:37:26;;;;;;;14.10;7.68;;;;;;;8.93;74.83;100477.16;10304406;28;20065;-58
2024/03/06 00:42:28;;;;;;;11.70;6.65;;;;;;;9.03;74.92;100481.56;10299705;28;20046;-59
2024/03/06 00:47:29;;;;;;;14.35;7.72;;;;;;;9.15;74.43;100485.63;10303313;28;20052;-58
2024/03/06 00:52:31;;;;;;;14.10;7.03;;;;;;;9.28;74.22;100486.00;10301857;28;20058;-58
2024/03/06 00:57:32;;;;;;;12.88;7.75;;;;;;;9.39;74.10;100494.72;10304849;28;20046;-60
2024/03/06 01:02:34;;;;;;;15.18;7.07;;;;;;;9.45;73.83;100492.22;10299105;28;20050;-57
2024/03/06 01:07:39;;;;;;;12.18;5.97;;;;;;;9.47;74.22;100492.06;10306234;28;20051;-58
2024/03/06 01:12:40;;;;;;;13.40;6.88;;;;;;;9.46;74.42;100496.59;10305010;28;20122;-59
2024/03/06 01:17:42;;;;;;;11.30;6.32;;;;;;;9.53;74.12;100499.44;10307743;28;20046;-59
2024/03/06 01:22:45;;;;;;;10.95;5.75;;;;;;;9.54;73.98;100498.47;10302304;28;20047;-59
2024/03/06 01:27:50;;;;;;;12.13;6.07;;;;;;;9.57;73.93;100505.31;10307715;28;20121;-58
2024/03/06 01:32:51;;;;;;;10.70;5.75;;;;;;;9.48;74.29;100505.31;10300434;28;20053;-60
2024/03/06 01:37:53;;;;;;;11.88;5.68;;;;;;;9.42;74.28;100497.94;10303436;28;20047;-57
2024/03/06 01:42:56;;;;;;;10.27;4.63;;;;;;;9.04;74.76;100493.97;10298576;28;20051;-58
2024/03/06 01:47:57;;;;;;;9.35;4.65;;;;;;;8.76;75.19;100496.88;10301273;28;20046;-57
2024/03/06 01:52:58;;;;;;;6.65;3.63;;;;;;;8.63;75.01;100500.00;10299850;28;20047;-58
2024/03/06 01:58:00;;;;;;;8.25;4.18;;;;;;;8.53;74.75;100494.75;10303462;28;20042;-57
2024/03/06 02:03:02;;;;;;;8.32;3.03;;;;;;;8.43;74.36;100510.09;10299916;28;20394;-58
2024/03/06 02:08:04;;;;;;;10.40;3.67;;;;;;;8.39;74.55;100505.16;10300816;28;20058;-59
2024/03/06 02:13:06;;;;;;;10.20;4.60;;;;;;;8.32;74.50;100502.28;10298261;28;20122;-59
2024/03/06 02:18:08;;;;;;;8.43;3.80;;;;;;;8.29;74.51;100510.63;10301587;28;20073;-59
2024/03/06 02:23:10;;;;;;;9.75;3.90;;;;;;;7.95;74.79;100525.59;10302135;28;20057;-59
2024/03/06 02:28:12;;;;;;;6.53;3.97;;;;;;;7.99;75.32;100520.78;10301946;28;20744;-59
2024/03/06 02:33:14;;;;;;;7.43;3.85;;;;;;;8.14;75.21;100521.09;10299572;28;20049;-59
2024/03/06 02:38:15;;;;;;;7.53;3.45;;;;;;;8.20;74.69;100524.97;10300798;28;20050;-59
2024/03/06 02:43:17;;;;;;;7.63;2.88;;;;;;;8.37;74.39;100533.94;10294278;28;20065;-58
2024/03/06 02:48:18;;;;;;;9.75;4.07;;;;;;;8.43;73.87;100519.97;10299511;28;20053;-59
2024/03/06 02:53:20;;;;;;;13.93;5.07;;;;;;;8.34;74.44;100516.38;10298984;28;20038;-59
2024/03/06 02:58:22;;;;;;;8.43;4.97;;;;;;;8.31;74.14;100511.31;10299677;28;20054;-60
2024/03/06 03:03:24;;;;;;;6.45;3.63;;;;;;;8.25;74.33;100510.09;10300014;28;20046;-60
2024/03/06 03:08:26;;;;;;;7.43;3.92;;;;;;;8.19;74.10;100517.94;10301130;28;20051;-59
2024/03/06 03:13:27;;;;;;;11.57;4.55;;;;;;;8.09;74.71;100529.56;10291406;28;20053;-61
2024/03/06 03:18:29;;;;;;;10.23;4.57;;;;;;;7.99;74.62;100533.34;10294960;28;20140;-61
2024/03/06 03:23:30;;;;;;;7.15;4.15;;;;;;;8.02;74.70;100525.84;10303936;28;20569;-60
2024/03/06 03:28:32;;;;;;;9.50;4.60;;;;;;;7.99;74.14;100528.81;10294391;28;20046;-61
2024/03/06 03:33:34;;;;;;;9.02;4.43;;;;;;;7.97;74.10;100533.50;10299231;28;20420;-61
2024/03/06 03:38:38;;;;;;;10.18;4.63;;;;;;;8.02;74.15;100535.72;10300339;28;20066;-62
2024/03/06 03:43:40;;;;;;;7.80;4.13;;;;;;;8.05;73.91;100540.75;10300157;28;20406;-61
2024/03/06 03:48:42;;;;;;;9.45;4.75;;;;;;;7.94;74.22;100537.31;10296850;28;20541;-61
2024/03/06 03:53:43;;;;;;;12.18;4.05;;;;;;;7.97;74.22;100544.19;10297089;28;20061;-59
2024/03/06 03:58:45;;;;;;;14.15;5.70;;;;;;;7.96;74.04;100542.53;10299768;28;20046;-60
2024/03/06 04:03:46;;;;;;;10.38;5.57;;;;;;;7.93;73.76;100554.38;10296742;28;20058;-61
2024/03/06 04:08:48;;;;;;;11.82;5.07;;;;;;;7.94;73.88;100558.75;10301936;28;20046;-61
2024/03/06 04:13:50;;;;;;;13.05;5.18;;;;;;;7.93;73.81;100557.03;10301212;28;20140;-60
2024/03/06 04:18:51;;;;;;;15.07;6.00;;;;;;;7.95;74.12;100563.09;10283230;28;20421;-62
2024/03/06 04:23:53;;;;;;;12.40;5.40;;;;;;;8.04;73.64;100563.19;10300521;28;20062;-62
2024/03/06 04:28:54;;;;;;;10.10;5.57;;;;;;;8.09;73.85;100567.03;10305902;28;20142;-61
2024/03/06 04:33:56;;;;;;;13.27;5.75;;;;;;;8.14;74.08;100572.78;10302990;28;20054;-62
2024/03/06 04:38:57;;;;;;;10.70;5.75;;;;;;;8.16;74.23;100580.69;10304277;28;20130;-61
2024/03/06 04:44:00;;;;;;;14.48;6.38;;;;;;;8.05;74.30;100580.91;10305462;28;20062;-61
2024/03/06 04:49:02;;;;;;;11.30;5.93;;;;;;;8.01;73.89;100591.06;10300658;28;20430;-60
2024/03/06 04:54:04;;;;;;;14.40;6.10;;;;;;;8.04;74.11;100582.75;10305197;28;20048;-62
2024/03/06 04:59:05;;;;;;;10.43;5.25;;;;;;;8.08;74.12;100592.16;10305270;28;20048;-61
2024/03/06 05:04:07;;;;;;;16.00;5.75;;;;;;;8.09;73.87;100593.00;10299277;28;20059;-63
2024/03/06 05:09:26;;;;;;;11.77;5.45;;;;;;;8.06;74.28;100596.00;10303271;28;20479;-62
2024/03/06 05:14:44;;;;;;;12.30;5.38;;;;;;;8.06;74.02;100607.53;10302854;28;20054;-60
2024/03/06 05:20:04;;;;;;;10.85;5.38;;;;;;;8.13;74.12;100613.09;10298871;28;20043;-62
2024/03/06 05:25:24;;;;;;;12.18;5.88;;;;;;;8.14;73.66;100618.31;10301888;28;20787;-62
2024/03/06 05:30:43;;;;;;;13.65;6.47;;;;;;;8.19;74.13;100625.03;10300802;28;20070;-61
2024/03/06 05:36:02;;;;;;;14.57;7.07;;;;;;;8.22;73.95;100630.94;10306099;28;20446;-61
2024/03/06 05:41:21;;;;;;;13.20;6.80;;;;;;;8.24;73.74;100633.47;10290718;28;20383;-58
2024/03/06 05:46:40;;;;;;;12.27;5.82;;;;;;;8.24;74.16;100636.16;10297414;28;20059;-59
2024/03/06 05:51:59;;;;;;;13.05;6.90;;;;;;;8.17;73.75;100649.28;10301522;28;20125;-58
2024/03/06 05:57:18;;;;;;;14.30;7.38;;;;;;;8.10;73.77;100653.59;10301129;28;20042;-61
2024/03/06 06:02:37;;;;;;;14.70;6.85;;;;;;;8.08;73.70;100656.41;10284887;28;20133;-61
2024/03/06 06:07:39;;;;;;;17.70;7.05;;;;;;;8.09;74.14;100668.78;10299755;28;20053;-62
2024/03/06 06:12:41;;;;;;;20.95;7.57;;;;;;;8.09;74.13;100679.50;10298909;28;20054;-61
2024/03/06 06:17:45;;;;;;;14.18;7.28;;;;;;;8.17;73.64;100688.63;10286659;28;21210;-62
2024/03/06 06:22:48;;;;;;;14.32;7.40;;;;;;;8.24;73.79;100689.69;10301490;28;20055;-62
2024/03/06 06:27:49;;;;;;;18.50;8.05;;;;;;;8.31;73.61;100688.06;10300839;28;20045;-62
2024/03/06 06:32:51;;;;;;;17.70;8.35;;;;;;;8.36;74.05;100696.50;10296960;28;20105;-62
2024/03/06 06:37:53;;;;;;;20.92;9.70;;;;;;;8.39;73.87;100700.72;10302399;28;20051;-61
2024/03/06 06:42:54;;;;;;;18.83;8.88;;;;;;;8.37;74.03;100706.22;10296759;28;20059;-62
2024/03/06 06:47:56;;;;;;;19.15;7.88;;;;;;;8.28;74.23;100705.31;10305594;28;20054;-59
2024/03/06 06:52:59;;;;;;;18.25;7.93;;;;;;;8.44;74.01;100707.31;10325953;28;20055;-58
2024/03/06 06:58:00;;;;;;;22.92;8.95;;;;;;;8.51;73.49;100711.09;10312411;28;20046;-60
2024/03/06 07:03:02;;;;;;;21.95;9.18;;;;;;;8.55;73.48;100714.31;10317811;28;20051;-64
2024/03/06 07:08:04;;;;;;;19.88;8.88;;;;;;;8.56;73.69;100717.81;10342267;28;20050;-64
2024/03/06 07:13:06;;;;;;;22.73;9.38;;;;;;;8.58;73.74;100721.19;10344490;28;20055;-65
2024/03/06 07:18:09;;;;;;;32.88;11.60;;;;;;;8.66;73.56;100726.63;10345007;28;20061;-64
2024/03/06 07:23:11;;;;;;;20.40;10.15;;;;;;;8.78;73.73;100741.44;10331444;28;20066;-58
2024/03/06 07:28:12;;;;;;;23.23;9.57;;;;;;;8.90;74.04;100748.25;10306742;28;21094;-63
2024/03/06 07:33:14;;;;;;;20.27;9.10;;;;;;;9.08;73.88;100750.94;10323660;28;20047;-62
2024/03/06 07:38:15;;;;;;;19.75;9.80;;;;;;;9.28;73.75;100758.75;10315208;28;20665;-59
2024/03/06 07:43:17;;;;;;;18.65;9.48;;;;;;;9.44;73.57;100764.25;10324294;28;20067;-62
2024/03/06 07:48:19;;;;;;;17.00;9.30;;;;;;;9.62;73.61;100771.41;10313410;28;20139;-62
2024/03/06 07:53:21;;;;;;;21.48;10.45;;;;;;;9.76;73.54;100786.06;10318217;28;20050;-64
2024/03/06 07:58:22;;;;;;;25.70;11.80;;;;;;;9.95;73.07;100787.66;10315788;28;20043;-64
2024/03/06 08:03:24;;;;;;;25.08;9.75;;;;;;;10.13;73.21;100794.63;10306876;28;20049;-63
2024/03/06 08:08:26;;;;;;;21.08;11.27;;;;;;;10.40;72.73;100799.94;10306383;28;20105;-63
2024/03/06 08:13:27;;;;;;;21.73;10.75;;;;;;;10.67;72.50;100801.50;10298228;28;20074;-64
2024/03/06 08:18:29;;;;;;;23.38;11.10;;;;;;;10.84;71.97;100796.97;10308139;28;20058;-57
2024/03/06 08:23:31;;;;;;;23.10;11.05;;;;;;;10.94;72.34;100808.44;10327731;28;20099;-61
2024/03/06 08:28:32;;;;;;;20.13;10.32;;;;;;;11.11;71.74;100817.34;10329274;28;20050;-61
2024/03/06 08:33:34;;;;;;;23.38;10.73;;;;;;;11.27;71.18;100820.03;10329472;28;20469;-60
2024/03/06 08:38:35;;;;;;;20.48;11.40;;;;;;;11.43;71.59;100818.34;10327770;28;20042;-60
2024/03/06 08:43:37;;;;;;;22.33;10.90;;;;;;;11.56;71.18;100818.66;10333049;28;20058;-59
2024/03/06 08:48:39;;;;;;;22.80;11.10;;;;;;;11.76;70.77;100821.81;10335547;28;20050;-60
2024/03/06 08:53:41;;;;;;;23.35;11.52;;;;;;;11.78;71.19;100829.72;10328734;28;20051;-63
2024/03/06 08:58:42;;;;;;;26.40;12.65;;;;;;;11.54;71.20;100827.94;10335424;28;20513;-61
2024/03/06 09:03:43;;;;;;;31.85;13.90;;;;;;;11.86;70.51;100840.47;10337995;28;20061;-61
2024/03/06 09:08:47;;;;;;;32.72;14.25;;;;;;;12.02;70.39;100848.53;10316218;28;20069;-61
2024/03/06 09:13:48;;;;;;;33.00;14.88;;;;;;;11.89;70.63;100838.31;10309177;28;20058;-62
2024/03/06 09:18:50;;;;;;;29.30;13.60;;;;;;;12.07;69.98;100843.47;10306783;28;20057;-61
2024/03/06 09:23:51;;;;;;;31.20;13.77;;;;;;;12.16;69.59;100846.97;10305222;28;20058;-61
2024/03/06 09:28:53;;;;;;;33.60;14.95;;;;;;;12.26;68.83;100834.16;10310639;28;20054;-62
2024/03/06 09:33:54;;;;;;;32.28;15.23;;;;;;;12.42;68.78;100840.47;10311430;28;20054;-63
2024/03/06 09:38:55;;;;;;;27.77;13.32;;;;;;;12.25;68.87;100840.56;10309795;28;20413;-63
2024/03/06 09:43:59;;;;;;;26.70;13.82;;;;;;;12.40;68.15;100840.66;10311283;28;20039;-62
2024/03/06 09:49:01;;;;;;;23.02;11.32;;;;;;;12.62;67.55;100844.44;10307406;28;20046;-63
2024/03/06 09:54:05;;;;;;;27.77;11.65;;;;;;;12.75;66.99;100848.41;10309594;28;20517;-62
2024/03/06 09:59:06;;;;;;;21.27;10.82;;;;;;;12.83;66.67;100834.84;10305829;28;20042;-63
2024/03/06 10:04:18;;;;;;;22.80;11.35;;;;;;;12.75;66.23;100841.13;10291120;28;20498;-62
2024/03/06 10:09:20;;;;;;;24.52;11.23;;;;;;;12.80;66.27;100838.75;10301018;28;20072;-64
2024/03/06 10:14:23;;;;;;;21.40;9.93;;;;;;;12.89;65.55;100839.53;10299754;28;20050;-64
2024/03/06 10:19:27;;;;;;;18.85;10.40;;;;;;;13.31;64.47;100851.75;10303077;28;20077;-66
2024/03/06 10:24:29;;;;;;;20.73;9.70;;;;;;;13.50;63.94;100842.28;10300179;28;20102;-66
2024/03/06 10:29:31;;;;;;;18.70;9.25;;;;;;;13.74;63.45;100832.25;10300017;28;20401;-66
2024/03/06 10:34:32;;;;;;;20.63;10.27;;;;;;;14.14;62.17;100840.91;10296932;28;20118;-64
2024/03/06 10:39:34;;;;;;;20.75;9.75;;;;;;;14.47;61.71;100842.22;10296604;28;20054;-65
2024/03/06 10:44:40;;;;;;;19.75;10.18;;;;;;;14.50;61.34;100845.56;10302740;28;20053;-64
2024/03/06 10:49:42;;;;;;;19.23;9.80;;;;;;;15.00;60.15;100851.97;10297690;28;20132;-64
2024/03/06 10:54:46;;;;;;;17.55;8.57;;;;;;;15.20;59.54;100844.88;10298678;28;20053;-64
2024/03/06 10:59:49;;;;;;;18.33;8.85;;;;;;;15.31;59.08;100850.81;10299134;28;20123;-63
2024/03/06 11:04:51;;;;;;;21.80;10.82;;;;;;;14.92;59.77;100858.34;10297562;28;20053;-64
2024/03/06 11:09:53;;;;;;;21.00;10.48;;;;;;;14.82;59.80;100855.94;10302237;28;20113;-64
2024/03/06 11:14:55;;;;;;;20.63;10.95;;;;;;;14.73;59.25;100858.97;10296771;28;20039;-64
2024/03/06 11:20:00;;;;;;;21.55;10.98;;;;;;;14.64;59.25;100860.94;10302505;28;20141;-64
2024/03/06 11:25:02;;;;;;;20.33;10.07;;;;;;;14.55;59.28;100862.06;10300299;28;20051;-65
2024/03/06 11:30:16;;;;;;;19.75;10.20;;;;;;;14.55;59.02;100854.75;10307029;28;20050;-65
2024/03/06 11:35:18;;;;;;;22.67;10.90;;;;;;;14.69;58.68;100872.03;10306098;28;20126;-65
2024/03/06 11:40:25;;;;;;;20.83;10.70;;;;;;;14.94;57.90;100858.16;10298499;28;20386;-65
2024/03/06 11:45:27;;;;;;;23.60;10.68;;;;;;;15.47;56.63;100858.66;10312554;28;20072;-63
2024/03/06 11:50:32;;;;;;;19.40;10.43;;;;;;;16.21;54.79;100854.59;10302903;28;20055;-64
2024/03/06 11:55:34;;;;;;;20.02;9.80;;;;;;;16.47;54.08;100853.91;10296451;28;20058;-64
2024/03/06 12:00:35;;;;;;;17.75;9.65;;;;;;;16.82;53.70;100859.25;10304091;28;20136;-63
2024/03/06 12:05:37;;;;;;;20.15;9.60;;;;;;;18.82;49.20;100845.44;10307733;28;20417;-66
2024/03/06 12:10:39;;;;;;;15.10;8.40;;;;;;;17.42;52.12;100857.47;10303997;28;20058;-66
2024/03/06 12:15:44;;;;;;;15.40;8.57;;;;;;;16.51;53.18;100863.31;10348635;28;20078;-65
2024/03/06 12:20:45;;;;;;;16.55;8.20;;;;;;;15.94;54.12;100876.16;10342346;28;20057;-68
2024/03/06 12:25:47;;;;;;;22.77;11.07;;;;;;;16.02;54.44;100873.28;10345687;28;20051;-65
2024/03/06 12:31:07;;;;;;;19.67;9.88;;;;;;;16.04;53.98;100865.78;10340164;28;20054;-66
2024/03/06 12:36:12;;;;;;;21.90;11.23;;;;;;;15.72;54.74;100880.75;10345861;28;20050;-65
2024/03/06 12:41:14;;;;;;;24.52;10.48;;;;;;;15.47;54.90;100883.88;10328195;28;20522;-69
2024/03/06 12:46:15;;;;;;;20.73;9.40;;;;;;;15.17;55.21;100894.03;10344410;28;20086;-69
2024/03/06 12:51:17;;;;;;;22.25;10.52;;;;;;;15.01;55.02;100891.56;10348019;28;20080;-66
2024/03/06 12:56:19;;;;;;;18.33;9.65;;;;;;;14.99;54.89;100882.81;10341454;28;20082;-65
2024/03/06 13:01:20;;;;;;;19.30;9.75;;;;;;;15.02;54.66;100885.94;10342221;28;20077;-67
2024/03/06 13:06:22;;;;;;;24.02;10.65;;;;;;;14.66;55.32;100880.53;10348238;28;20042;-66
2024/03/06 13:11:23;;;;;;;18.90;10.10;;;;;;;14.42;55.96;100876.25;10342637;28;20052;-64
2024/03/06 13:16:25;;;;;;;19.10;9.48;;;;;;;14.29;56.15;100882.31;10343139;28;20050;-66
2024/03/06 13:21:26;;;;;;;23.20;11.07;;;;;;;14.24;55.96;100880.19;10340108;28;20039;-66
2024/03/06 13:26:28;;;;;;;19.92;9.63;;;;;;;14.27;55.76;100884.38;10346896;28;20448;-64
2024/03/06 13:31:30;;;;;;;20.65;9.25;;;;;;;14.34;55.60;100884.50;10345312;28;20529;-66
2024/03/06 13:36:32;;;;;;;18.75;8.85;;;;;;;14.45;55.34;100876.72;10342344;28;20050;-65
2024/03/06 13:41:33;;;;;;;21.42;9.13;;;;;;;14.60;55.12;100875.91;10344359;28;20065;-66
2024/03/06 13:46:35;;;;;;;17.67;8.75;;;;;;;14.47;55.40;100880.09;10344429;28;20101;-66
2024/03/06 13:51:36;;;;;;;18.52;9.38;;;;;;;14.72;55.04;100876.25;10371322;28;20111;-65
2024/03/06 13:56:38;;;;;;;20.15;9.15;;;;;;;14.91;54.19;100883.75;10375487;28;20117;-62
2024/03/06 14:01:40;;;;;;;17.20;8.20;;;;;;;15.10;53.74;100884.16;10385839;28;20054;-64
2024/03/06 14:06:41;;;;;;;16.95;8.95;;;;;;;15.27;53.23;100881.00;10380984;28;20049;-63
2024/03/06 14:11:43;;;;;;;16.33;8.02;;;;;;;15.54;52.25;100881.25;10384591;28;20440;-64
2024/03/06 14:16:46;;;;;;;13.38;7.18;;;;;;;15.79;51.73;100886.25;10375569;28;20519;-62
2024/03/06 14:21:47;;;;;;;14.15;7.93;;;;;;;15.63;52.17;100887.34;10386027;28;20093;-63
2024/03/06 14:26:49;;;;;;;13.85;7.85;;;;;;;15.31;52.74;100896.88;10383281;28;20057;-61
2024/03/06 14:31:51;;;;;;;14.10;7.10;;;;;;;15.02;52.98;100887.81;10378139;28;20050;-62
2024/03/06 14:36:53;;;;;;;12.73;7.20;;;;;;;14.70;53.49;100895.38;10383845;28;20066;-64
2024/03/06 14:41:55;;;;;;;16.17;7.28;;;;;;;14.66;53.36;100889.50;10388857;28;20056;-63
2024/03/06 14:46:57;;;;;;;16.13;7.75;;;;;;;14.70;53.19;100883.72;10366742;28;20058;-62
2024/03/06 14:51:58;;;;;;;12.38;7.85;;;;;;;14.78;53.01;100892.56;10359714;28;20114;-63
2024/03/06 14:57:00;;;;;;;13.82;6.90;;;;;;;15.08;52.31;100892.47;10369476;28;20057;-60
2024/03/06 15:02:03;;;;;;;12.15;6.65;;;;;;;15.36;51.73;100887.09;10375154;28;20045;-60
2024/03/06 15:07:05;;;;;;;14.20;7.53;;;;;;;15.37;51.78;100886.09;10373129;28;20073;-63
2024/03/06 15:12:07;;;;;;;13.25;6.95;;;;;;;15.37;52.08;100896.91;10372511;28;20057;-59
2024/03/06 15:17:10;;;;;;;15.13;7.68;;;;;;;15.14;52.41;100886.28;10372770;28;20046;-61
2024/03/06 15:22:11;;;;;;;15.98;8.27;;;;;;;15.04;52.61;100893.88;10376496;28;20543;-61
2024/03/06 15:27:15;;;;;;;14.70;7.72;;;;;;;14.87;52.79;100896.84;10367651;28;20105;-61
2024/03/06 15:32:16;;;;;;;13.48;7.25;;;;;;;14.77;52.80;100896.31;10366218;28;20110;-61
2024/03/06 15:37:17;;;;;;;16.25;7.38;;;;;;;14.62;53.06;100901.72;10358783;28;20057;-63
2024/03/06 15:42:23;;;;;;;15.90;8.45;;;;;;;14.57;53.21;100900.59;10359166;28;20406;-61
2024/03/06 15:47:24;;;;;;;13.45;7.45;;;;;;;14.43;53.64;100904.97;10364059;28;20070;-63
2024/03/06 15:52:26;;;;;;;17.02;8.85;;;;;;;14.34;53.81;100903.41;10373390;28;20076;-62
2024/03/06 15:57:28;;;;;;;14.93;8.02;;;;;;;14.21;54.03;100907.59;10376852;28;20114;-61
2024/03/06 16:02:29;;;;;;;17.70;8.45;;;;;;;13.94;54.47;100916.31;10374195;28;20086;-62
2024/03/06 16:07:31;;;;;;;17.13;8.88;;;;;;;13.83;54.68;100923.03;10378040;28;20050;-62
2024/03/06 16:12:33;;;;;;;20.00;8.88;;;;;;;13.70;54.84;100929.03;10379086;28;20053;-60
2024/03/06 16:17:35;;;;;;;17.17;8.70;;;;;;;13.57;55.01;100931.53;10371953;28;20054;-63
2024/03/06 16:22:37;;;;;;;16.40;8.45;;;;;;;13.49;55.03;100935.16;10376862;28;20046;-58
2024/03/06 16:27:38;;;;;;;18.17;9.98;;;;;;;13.31;55.38;100943.53;10374993;28;20057;-62
2024/03/06 16:32:40;;;;;;;20.98;10.98;;;;;;;13.17;55.66;100947.81;10374946;28;20141;-62
2024/03/06 16:37:42;;;;;;;20.77;10.95;;;;;;;13.00;55.98;100952.47;10373007;28;20117;-62
2024/03/06 16:42:43;;;;;;;24.42;11.27;;;;;;;12.79;56.59;100958.47;10374013;28;20100;-63
2024/03/06 16:47:45;;;;;;;26.10;11.73;;;;;;;12.66;56.89;100961.72;10368570;28;20058;-59
2024/03/06 16:52:47;;;;;;;26.00;12.05;;;;;;;12.52;56.99;100965.16;10366023;28;20060;-61
2024/03/06 16:57:48;;;;;;;28.85;14.07;;;;;;;12.46;57.36;100966.69;10369758;28;20082;-64
2024/03/06 17:02:50;;;;;;;26.05;12.70;;;;;;;12.20;57.59;100971.47;10382248;28;20062;-61
2024/03/06 17:07:52;;;;;;;26.83;12.63;;;;;;;11.98;58.27;100979.22;10380393;28;20058;-64
2024/03/06 17:12:54;;;;;;;28.63;14.10;;;;;;;11.84;58.33;100979.88;10379709;28;20042;-63
2024/03/06 17:17:55;;;;;;;28.65;14.55;;;;;;;11.64;58.96;100984.78;10383638;28;20054;-62
2024/03/06 17:22:57;;;;;;;31.17;14.05;;;;;;;11.47;58.95;100986.59;10365298;28;20050;-66
2024/03/06 17:27:59;;;;;;;36.35;14.82;;;;;;;11.37;58.88;101002.06;10349232;28;20050;-66
2024/03/06 17:33:01;;;;;;;29.70;14.15;;;;;;;11.19;59.05;100997.63;10361789;28;20056;-64
2024/03/06 17:38:03;;;;;;;34.05;15.43;;;;;;;11.03;59.93;101002.97;10361665;28;20742;-63
2024/03/06 17:43:04;;;;;;;37.88;15.80;;;;;;;10.88;59.73;101008.97;10339553;28;20532;-64
2024/03/06 17:48:07;;;;;;;31.63;14.10;;;;;;;10.76;60.18;101009.41;10326919;28;20046;-64
2024/03/06 17:53:09;;;;;;;35.88;15.25;;;;;;;10.58;60.56;101022.94;10338407;28;20061;-62
2024/03/06 17:58:11;;;;;;;33.60;14.95;;;;;;;10.38;60.84;101031.22;10340041;28;20046;-63
2024/03/06 18:03:12;;;;;;;33.35;15.15;;;;;;;10.21;61.14;101032.06;10338332;28;20068;-63
2024/03/06 18:08:14;;;;;;;30.55;13.77;;;;;;;10.07;61.33;101038.84;10338093;28;20057;-61
2024/03/06 18:13:15;;;;;;;35.25;15.57;;;;;;;9.99;61.48;101044.16;10334728;28;20065;-64
2024/03/06 18:18:16;;;;;;;36.90;16.42;;;;;;;9.83;61.65;101044.84;10320502;28;20047;-63
2024/03/06 18:23:18;;;;;;;40.13;14.85;;;;;;;9.79;61.78;101051.53;10340578;28;20060;-62
2024/03/06 18:28:20;;;;;;;38.40;16.73;;;;;;;9.73;61.94;101050.28;10339777;28;20456;-61
2024/03/06 18:33:22;;;;;;;39.08;16.05;;;;;;;9.67;62.01;101054.44;10339452;28;20046;-59
2024/03/06 18:38:23;;;;;;;35.90;17.70;;;;;;;9.61;62.01;101051.53;10335985;28;20074;-59
2024/03/06 18:43:26;;;;;;;39.40;17.17;;;;;;;9.55;62.06;101050.28;10342335;28;21364;-59
2024/03/06 18:48:27;;;;;;;38.40;16.98;;;;;;;9.46;62.40;101062.78;10335733;28;20046;-59
2024/03/06 18:53:29;;;;;;;41.47;19.05;;;;;;;9.41;62.21;101054.34;10335507;28;20505;-58
2024/03/06 18:58:30;;;;;;;42.88;18.48;;;;;;;9.35;62.32;101062.16;10338654;28;20535;-59
2024/03/06 19:03:32;;;;;;;43.67;18.85;;;;;;;9.25;62.65;101065.72;10336835;28;20042;-58
2024/03/06 19:08:34;;;;;;;39.22;18.27;;;;;;;9.15;62.81;101077.50;10336237;28;20429;-59
2024/03/06 19:13:35;;;;;;;48.13;19.90;;;;;;;9.06;62.99;101079.22;10337989;28;20058;-59
2024/03/06 19:18:37;;;;;;;43.15;20.15;;;;;;;8.94;63.17;101078.56;10336609;28;20072;-59
2024/03/06 19:23:38;;;;;;;41.85;19.05;;;;;;;8.84;63.53;101077.78;10336755;28;20057;-60
2024/03/06 19:28:43;;;;;;;43.55;19.67;;;;;;;8.79;63.41;101078.22;10341166;28;20101;-58
2024/03/06 19:33:44;;;;;;;45.50;20.10;;;;;;;8.71;63.52;101083.47;10336397;28;20054;-60
2024/03/06 19:38:46;;;;;;;47.25;18.40;;;;;;;8.62;63.52;101090.53;10336212;28;20139;-62
2024/03/06 19:43:47;;;;;;;47.08;20.08;;;;;;;8.52;64.17;101089.72;10334469;28;20054;-61
2024/03/06 19:48:49;;;;;;;46.83;19.75;;;;;;;8.45;64.27;101080.56;10341642;28;20053;-61
2024/03/06 19:53:52;;;;;;;40.60;19.15;;;;;;;8.42;64.11;101091.56;10344504;28;20058;-61
2024/03/06 19:58:53;;;;;;;45.85;20.73;;;;;;;8.39;64.32;101086.47;10342362;28;20104;-64
2024/03/06 20:03:56;;;;;;;42.42;19.58;;;;;;;8.32;64.24;101091.56;10343419;28;20050;-61
2024/03/06 20:08:58;;;;;;;41.15;19.38;;;;;;;8.31;64.79;101085.38;10344330;28;20046;-63
2024/03/06 20:14:00;;;;;;;41.53;19.20;;;;;;;8.30;64.38;101088.19;10340290;28;20050;-62
2024/03/06 20:19:01;;;;;;;41.60;20.10;;;;;;;8.31;64.27;101092.53;10341488;28;20056;-63
2024/03/06 20:24:03;;;;;;;42.75;21.08;;;;;;;8.29;64.34;101094.50;10342482;28;20058;-61
2024/03/06 20:29:04;;;;;;;42.83;20.67;;;;;;;8.31;64.26;101087.16;10343074;28;20050;-60
2024/03/06 20:34:06;;;;;;;42.72;20.25;;;;;;;8.24;64.45;101094.94;10339222;28;20046;-60
2024/03/06 20:39:14;;;;;;;43.72;22.23;;;;;;;8.24;63.99;101102.97;10346134;28;20049;-60
2024/03/06 20:44:16;;;;;;;47.13;20.83;;;;;;;8.19;64.52;101099.03;10345958;28;20152;-61
2024/03/06 20:49:21;;;;;;;46.58;20.90;;;;;;;8.09;64.24;101099.03;10328726;28;20720;-62
2024/03/06 20:54:22;;;;;;;42.45;19.90;;;;;;;7.95;64.48;101097.63;10344497;28;20129;-62
2024/03/06 20:59:24;;;;;;;53.58;22.52;;;;;;;7.83;64.46;101094.22;10341652;28;20047;-63
2024/03/06 21:04:25;;;;;;;46.58;20.58;;;;;;;7.78;64.16;101095.63;10341331;28;20213;-63
2024/03/06 21:09:29;;;;;;;45.75;21.60;;;;;;;7.65;65.03;101094.06;10341101;28;20057;-61
2024/03/06 21:14:33;;;;;;;47.13;20.58;;;;;;;7.53;65.33;101092.50;10295004;28;20051;-62
2024/03/06 21:19:36;;;;;;;45.75;20.05;;;;;;;7.52;65.58;101097.03;10295216;28;20050;-61
2024/03/06 21:24:38;;;;;;;43.78;20.60;;;;;;;7.50;65.48;101096.31;10300299;28;20050;-62
2024/03/06 21:29:40;;;;;;;50.60;21.50;;;;;;;7.46;65.50;101102.06;10299696;28;20508;-62
2024/03/06 21:34:45;;;;;;;43.28;19.38;;;;;;;7.41;65.27;101104.31;10303291;28;20057;-63
2024/03/06 21:39:47;;;;;;;40.00;19.25;;;;;;;7.40;65.38;101110.63;10301622;28;20494;-62
2024/03/06 21:44:50;;;;;;;42.42;18.55;;;;;;;7.37;64.82;101111.75;10300643;28;20557;-63
2024/03/06 21:49:51;;;;;;;38.85;18.08;;;;;;;7.29;65.75;101103.56;10300559;28;20050;-62
2024/03/06 21:54:52;;;;;;;41.13;19.83;;;;;;;7.18;65.90;101109.03;10300222;28;20050;-63
2024/03/06 21:59:55;;;;;;;39.63;18.30;;;;;;;7.12;65.90;101107.72;10302471;28;20043;-62
2024/03/06 22:04:57;;;;;;;38.80;17.73;;;;;;;7.02;65.60;101102.34;10305704;28;20038;-60
2024/03/06 22:09:58;;;;;;;41.15;18.20;;;;;;;7.01;66.11;101102.47;10306456;28;20046;-61
2024/03/06 22:15:00;;;;;;;43.03;18.50;;;;;;;6.99;66.01;101105.31;10300353;28;20689;-57
2024/03/06 22:20:02;;;;;;;41.33;18.50;;;;;;;6.92;66.21;101106.81;10301008;28;20086;-59
2024/03/06 22:25:05;;;;;;;45.13;19.80;;;;;;;6.88;65.67;101108.88;10301903;28;20048;-58
2024/03/06 22:30:07;;;;;;;38.92;17.95;;;;;;;6.85;65.93;101114.50;10306772;28;20113;-59
2024/03/06 22:35:09;;;;;;;42.22;18.92;;;;;;;6.80;66.17;101114.06;10308611;28;20475;-59
2024/03/06 22:40:14;;;;;;;43.80;19.90;;;;;;;6.73;66.05;101116.44;10305634;28;20054;-58
2024/03/06 22:45:15;;;;;;;40.63;19.08;;;;;;;6.65;66.64;101116.22;10297561;28;20050;-59
2024/03/06 22:50:17;;;;;;;39.80;18.35;;;;;;;6.61;66.57;101120.13;10298907;28;20520;-58
2024/03/06 22:55:18;;;;;;;38.65;16.15;;;;;;;6.52;66.09;101113.75;10301711;28;20552;-58